Observation data for Tatum on 02/10/2019      Previous  Date  Next       Current Mesonet Observations  Soil Data  Daily Summary Page  Observations in Plain Language
KTAT 100600Z 16007KT M01/M03 A3011 RMK A01 T10111030  RH  087%=      5-min Rain = 0
KTAT 100605Z 16005KT M01/M03 A3011 RMK A01 T10121031  RH  087%=      5-min Rain = 0
KTAT 100610Z 17006KT M01/M03 A3012 RMK A01 T10121031  RH  088%=      5-min Rain = 0
KTAT 100615Z 17006KT M01/M03 A3012 RMK A01 T10111029  RH  088%=      5-min Rain = 0
KTAT 100620Z 17006KT M01/M03 A3013 RMK A01 T10101029  RH  088%=      5-min Rain = 0
KTAT 100625Z 17006KT M01/M03 A3012 RMK A01 T10101029  RH  088%=      5-min Rain = 0
KTAT 100630Z 16006KT M01/M03 A3011 RMK A01 T10101029  RH  088%=      5-min Rain = 0
KTAT 100635Z 16005KT M01/M03 A3011 RMK A01 T10101029  RH  088%=      5-min Rain = 0
KTAT 100640Z 16005KT M01/M03 A3011 RMK A01 T10111029  RH  088%=      5-min Rain = 0
KTAT 100645Z 17006KT M01/M03 A3011 RMK A01 T10101029  RH  088%=      5-min Rain = 0
KTAT 100650Z 17008KT M01/M03 A3011 RMK A01 T10101028  RH  088%=      5-min Rain = 0
KTAT 100655Z 16008KT M01/M03 A301 RMK A01 T10101028  RH  088%=      5-min Rain = 0
KTAT 100700Z 16008KT M01/M03 A301 RMK A01 T10101028  RH  088%=      5-min Rain = 0
KTAT 100705Z 16009KT M01/M03 A301 RMK A01 T10101028  RH  088%=      5-min Rain = 0
KTAT 100710Z 16009KT M01/M03 A301 RMK A01 T10101028  RH  088%=      5-min Rain = 0
KTAT 100715Z 16010KT M01/M03 A301 RMK A01 T10101027  RH  089%=      5-min Rain = 0
KTAT 100720Z 16012KT M01/M03 A301 RMK A01 T10111026  RH  090%=      5-min Rain = 0
KTAT 100725Z 16011KT M01/M02 A301 RMK A01 T10111024  RH  091%=      5-min Rain = 0
KTAT 100730Z 16011KT M01/M02 A3009 RMK A01 T10101022  RH  092%=      5-min Rain = 0
KTAT 100735Z 16011KT M01/M02 A3009 RMK A01 T10101021  RH  093%=      5-min Rain = 0
KTAT 100740Z 16011KT M01/M02 A3009 RMK A01 T10101020  RH  093%=      5-min Rain = 0
KTAT 100745Z 16013KT M01/M02 A3008 RMK A01 T10101020  RH  094%=      5-min Rain = 0
KTAT 100750Z 16011KT M01/M02 A3008 RMK A01 T10101020  RH  094%=      5-min Rain = 0
KTAT 100755Z 16011KT M01/M02 A3008 RMK A01 T10101019  RH  094%=      5-min Rain = 0
KTAT 100800Z 16010KT M01/M02 A3009 RMK A01 T10091018  RH  094%=      5-min Rain = 0
KTAT 100805Z 16011KT M01/M02 A3009 RMK A01 T10091018  RH  094%=      5-min Rain = 0
KTAT 100810Z 17011KT M01/M02 A3009 RMK A01 T10081017  RH  095%=      5-min Rain = 0
KTAT 100815Z 17010KT M01/M02 A3009 RMK A01 T10071016  RH  095%=      5-min Rain = 0
KTAT 100820Z 16009KT M01/M02 A3009 RMK A01 T10071016  RH  095%=      5-min Rain = 0
KTAT 100825Z 16009KT M01/M02 A3009 RMK A01 T10061015  RH  095%=      5-min Rain = 0
KTAT 100830Z 16010KT M01/M02 A3009 RMK A01 T10061015  RH  094%=      5-min Rain = 0
KTAT 100835Z 16011KT M01/M02 A3009 RMK A01 T10051015  RH  094%=      5-min Rain = 0
KTAT 100840Z 16011KT M01/M02 A3008 RMK A01 T10051015  RH  094%=      5-min Rain = 0
KTAT 100845Z 17010KT M01/M02 A3009 RMK A01 T10051015  RH  094%=      5-min Rain = 0
KTAT 100850Z 17008KT M01/M02 A3009 RMK A01 T10051015  RH  094%=      5-min Rain = 0
KTAT 100855Z 17009KT M01/M02 A3009 RMK A01 T10051015  RH  094%=      5-min Rain = 0
KTAT 100900Z 17010KT M00/M02 A3008 RMK A01 T10041015  RH  094%=      5-min Rain = 0
KTAT 100905Z 17012KT M00/M02 A3008 RMK A01 T10041015  RH  093%=      5-min Rain = 0
KTAT 100910Z 17010KT M00/M02 A3007 RMK A01 T10041015  RH  093%=      5-min Rain = 0
KTAT 100915Z 17010KT M00/M02 A3007 RMK A01 T10041015  RH  093%=      5-min Rain = 0
KTAT 100920Z 17008KT M00/M02 A3007 RMK A01 T10041015  RH  093%=      5-min Rain = 0
KTAT 100925Z 17010KT M00/M02 A3007 RMK A01 T10031015  RH  093%=      5-min Rain = 0
KTAT 100930Z 17009KT M00/M02 A3007 RMK A01 T10031015  RH  093%=      5-min Rain = 0
KTAT 100935Z 17009KT M00/M02 A3007 RMK A01 T10031015  RH  092%=      5-min Rain = 0
KTAT 100940Z 17008KT M00/M02 A3007 RMK A01 T10031015  RH  092%=      5-min Rain = 0
KTAT 100945Z 17008KT M00/M02 A3007 RMK A01 T10031015  RH  092%=      5-min Rain = 0
KTAT 100950Z 17010KT M00/M02 A3007 RMK A01 T10021015  RH  092%=      5-min Rain = 0
KTAT 100955Z 17010KT M00/M02 A3007 RMK A01 T10021015  RH  092%=      5-min Rain = 0
KTAT 101000Z 18008KT M00/M02 A3007 RMK A01 T10021015  RH  092%=      5-min Rain = 0
KTAT 101005Z 18008KT M00/M02 A3007 RMK A01 T10011015  RH  091%=      5-min Rain = 0
KTAT 101010Z 18009KT M00/M02 A3007 RMK A01 T10011015  RH  091%=      5-min Rain = 0
KTAT 101015Z 18009KT 00/02 A3007 RMK A01 T00-00-15  RH  091%=      5-min Rain = 0
KTAT 101020Z 18008KT 00/02 A3007 RMK A01 T00000-15  RH  091%=      5-min Rain = 0
KTAT 101025Z 18009KT 00/02 A3006 RMK A01 T00000-15  RH  090%=      5-min Rain = 0
KTAT 101030Z 18009KT 00/M02 A3006 RMK A01 T00011015  RH  090%=      5-min Rain = 0
KTAT 101035Z 17010KT 00/M02 A3006 RMK A01 T00011015  RH  090%=      5-min Rain = 0
KTAT 101040Z 17009KT 00/M02 A3005 RMK A01 T00011015  RH  090%=      5-min Rain = 0
KTAT 101045Z 18010KT 00/M02 A3005 RMK A01 T00011015  RH  090%=      5-min Rain = 0
KTAT 101050Z 18010KT 00/M02 A3005 RMK A01 T00011015  RH  090%=      5-min Rain = 0
KTAT 101055Z 18010KT 00/M02 A3005 RMK A01 T00011015  RH  089%=      5-min Rain = 0
KTAT 101100Z 18009KT 00/M02 A3005 RMK A01 T00011015  RH  089%=      5-min Rain = 0
KTAT 101105Z 19009KT 00/M02 A3005 RMK A01 T00011015  RH  089%=      5-min Rain = 0
KTAT 101110Z 18009KT 00/M02 A3005 RMK A01 T00021015  RH  089%=      5-min Rain = 0
KTAT 101115Z 18009KT 00/M02 A3005 RMK A01 T00021016  RH  089%=      5-min Rain = 0
KTAT 101120Z 18007KT 00/M02 A3005 RMK A01 T00021016  RH  089%=      5-min Rain = 0
KTAT 101125Z 19006KT 00/M02 A3005 RMK A01 T00021016  RH  089%=      5-min Rain = 0
KTAT 101130Z 18005KT 00/M02 A3005 RMK A01 T00011016  RH  089%=      5-min Rain = 0
KTAT 101135Z 17004KT 00/M02 A3005 RMK A01 T00011016  RH  089%=      5-min Rain = 0
KTAT 101140Z 18005KT 00/M02 A3005 RMK A01 T00011016  RH  089%=      5-min Rain = 0
KTAT 101145Z 19005KT 00/M02 A3005 RMK A01 T00021015  RH  089%=      5-min Rain = 0
KTAT 101150Z 19004KT 00/M02 A3005 RMK A01 T00021016  RH  089%=      5-min Rain = 0
KTAT 101155Z 19006KT 00/M02 A3004 RMK A01 T00021015  RH  089%=      5-min Rain = 0
KTAT 101200Z 19006KT 00/M02 A3005 RMK A01 T00021016  RH  089%=      5-min Rain = 0
KTAT 101205Z 19006KT 00/M02 A3005 RMK A01 T00021015  RH  089%=      5-min Rain = 0
KTAT 101210Z 18005KT 00/M02 A3005 RMK A01 T00021016  RH  089%=      5-min Rain = 0
KTAT 101215Z 18004KT 00/M02 A3004 RMK A01 T00021016  RH  089%=      5-min Rain = 0
KTAT 101220Z 19005KT 00/M02 A3004 RMK A01 T00021016  RH  089%=      5-min Rain = 0
KTAT 101225Z 18006KT 00/M02 A3005 RMK A01 T00021015  RH  089%=      5-min Rain = 0
KTAT 101230Z 18006KT 00/M02 A3005 RMK A01 T00021015  RH  089%=      5-min Rain = 0
KTAT 101235Z 17004KT 00/M02 A3004 RMK A01 T00021016  RH  089%=      5-min Rain = 0
KTAT 101240Z 17004KT 00/M02 A3004 RMK A01 T00021016  RH  089%=      5-min Rain = 0
KTAT 101245Z 17006KT 00/M02 A3004 RMK A01 T00021016  RH  089%=      5-min Rain = 0
KTAT 101250Z 17006KT 00/M02 A3005 RMK A01 T00021015  RH  089%=      5-min Rain = 0
KTAT 101255Z 18007KT 00/M02 A3005 RMK A01 T00021015  RH  089%=      5-min Rain = 0
KTAT 101300Z 17008KT 00/M02 A3005 RMK A01 T00021015  RH  089%=      5-min Rain = 0
KTAT 101305Z 17007KT 00/M02 A3005 RMK A01 T00021015  RH  089%=      5-min Rain = 0
KTAT 101310Z 17007KT 00/M02 A3005 RMK A01 T00021015  RH  089%=      5-min Rain = 0
KTAT 101315Z 16008KT 00/M02 A3005 RMK A01 T00021015  RH  089%=      5-min Rain = 0
KTAT 101320Z 16006KT 00/M02 A3005 RMK A01 T00011015  RH  089%=      5-min Rain = 0
KTAT 101325Z 01001KT 00/M02 A3006 RMK A01 T00011015  RH  089%=      5-min Rain = 0
KTAT 101330Z 16005KT 00/M02 A3006 RMK A01 T00011015  RH  090%=      5-min Rain = 0
KTAT 101335Z 16007KT 00/M02 A3005 RMK A01 T00011015  RH  090%=      5-min Rain = 0
KTAT 101340Z 11003KT 00/M02 A3006 RMK A01 T00011015  RH  090%=      5-min Rain = 0
KTAT 101345Z 11006KT 00/M02 A3006 RMK A01 T00011015  RH  090%=      5-min Rain = 0
KTAT 101350Z 15009KT 00/M01 A3005 RMK A01 T00011014  RH  090%=      5-min Rain = 0
KTAT 101355Z 16009KT 00/M01 A3005 RMK A01 T00011014  RH  090%=      5-min Rain = 0
KTAT 101400Z 15008KT 00/M01 A3005 RMK A01 T00011014  RH  090%=      5-min Rain = 0
KTAT 101405Z 15007KT 00/M01 A3005 RMK A01 T00011014  RH  091%=      5-min Rain = 0
KTAT 101410Z 14008KT 00/M01 A3005 RMK A01 T00011013  RH  091%=      5-min Rain = 0
KTAT 101415Z 14005KT 00/M01 A3006 RMK A01 T00011013  RH  091%=      5-min Rain = 0
KTAT 101420Z 13005KT 00/M01 A3006 RMK A01 T00011013  RH  091%=      5-min Rain = 0
KTAT 101425Z 13006KT 00/M01 A3006 RMK A01 T00021012  RH  091%=      5-min Rain = 0
KTAT 101430Z 14007KT 00/M01 A3006 RMK A01 T00021012  RH  091%=      5-min Rain = 0
KTAT 101435Z 16007KT 00/M01 A3006 RMK A01 T00031012  RH  091%=      5-min Rain = 0
KTAT 101440Z 16007KT 00/M01 A3007 RMK A01 T00041011  RH  091%=      5-min Rain = 0
KTAT 101445Z 17008KT 01/M01 A3007 RMK A01 T00051011  RH  090%=      5-min Rain = 0
KTAT 101450Z 17007KT 01/M01 A3007 RMK A01 T00061010  RH  090%=      5-min Rain = 0
KTAT 101455Z 16006KT 01/M01 A3007 RMK A01 T00081008  RH  090%=      5-min Rain = 0
KTAT 101500Z 17006KT 01/M01 A3007 RMK A01 T00091008  RH  089%=      5-min Rain = 0
KTAT 101505Z 17007KT 01/M01 A3007 RMK A01 T00111008  RH  088%=      5-min Rain = 0
KTAT 101510Z 17007KT 01/M01 A3007 RMK A01 T00121008  RH  087%=      5-min Rain = 0
KTAT 101515Z 17009KT 01/M01 A3007 RMK A01 T00131009  RH  086%=      5-min Rain = 0
KTAT 101520Z 17006KT 01/M01 A3007 RMK A01 T00141008  RH  086%=      5-min Rain = 0
KTAT 101525Z 17004KT 02/M01 A3007 RMK A01 T00151008  RH  086%=      5-min Rain = 0
KTAT 101530Z 18005KT 02/M01 A3007 RMK A01 T00161008  RH  085%=      5-min Rain = 0
KTAT 101535Z 19007KT 02/M01 A3006 RMK A01 T00161008  RH  084%=      5-min Rain = 0
KTAT 101540Z 20004KT 02/M01 A3006 RMK A01 T00171009  RH  084%=      5-min Rain = 0
KTAT 101545Z 20003KT 02/M01 A3007 RMK A01 T00171009  RH  084%=      5-min Rain = 0
KTAT 101550Z 25002KT 02/M01 A3007 RMK A01 T00171010  RH  083%=      5-min Rain = 0
KTAT 101555Z 19005KT 02/M01 A3007 RMK A01 T00181009  RH  083%=      5-min Rain = 0
KTAT 101600Z 19008KT 02/M01 A3007 RMK A01 T00211008  RH  082%=      5-min Rain = 0
KTAT 101605Z 20006KT 02/M01 A3007 RMK A01 T00221009  RH  081%=      5-min Rain = 0
KTAT 101610Z 22004KT 02/M01 A3008 RMK A01 T00221009  RH  081%=      5-min Rain = 0
KTAT 101615Z 22006KT 02/M01 A301 RMK A01 T00231009  RH  080%=      5-min Rain = 0
KTAT 101620Z 21005KT 02/M01 A3009 RMK A01 T00241009  RH  080%=      5-min Rain = 0
KTAT 101625Z 19006KT 03/M01 A3009 RMK A01 T00251008  RH  079%=      5-min Rain = 0
KTAT 101630Z 23004KT 03/M01 A3009 RMK A01 T00261009  RH  078%=      5-min Rain = 0
KTAT 101635Z 22004KT 03/M01 A3009 RMK A01 T00271009  RH  078%=      5-min Rain = 0
KTAT 101640Z 23003KT 03/M01 A3009 RMK A01 T00281009  RH  077%=      5-min Rain = 0
KTAT 101645Z 21004KT 03/M01 A301 RMK A01 T00281009  RH  077%=      5-min Rain = 0
KTAT 101650Z 19005KT 03/M01 A3009 RMK A01 T00301008  RH  077%=      5-min Rain = 0
KTAT 101655Z 19006KT 03/M01 A301 RMK A01 T00321009  RH  076%=      5-min Rain = 0
KTAT 101700Z 19005KT 03/M01 A3009 RMK A01 T00331009  RH  075%=      5-min Rain = 0
KTAT 101705Z 18006KT 03/M01 A3009 RMK A01 T00341008  RH  074%=      5-min Rain = 0
KTAT 101710Z 19004KT 04/M01 A3009 RMK A01 T00351009  RH  074%=      5-min Rain = 0
KTAT 101715Z 23004KT 04/M01 A3009 RMK A01 T00351009  RH  074%=      5-min Rain = 0
KTAT 101720Z 23007KT 04/M01 A3009 RMK A01 T00361009  RH  073%=      5-min Rain = 0
KTAT 101725Z 21006KT 04/M01 A3008 RMK A01 T00381008  RH  073%=      5-min Rain = 0
KTAT 101730Z 22005KT 04/M01 A3009 RMK A01 T00411009  RH  071%=      5-min Rain = 0
KTAT 101735Z 23005KT 04/M01 A3008 RMK A01 T00421008  RH  070%=      5-min Rain = 0
KTAT 101740Z 19004KT 05/M01 A3008 RMK A01 T00451007  RH  069%=      5-min Rain = 0
KTAT 101745Z 22004G9KT 05/M01 A3008 RMK A01 T00491008  RH  067%=      5-min Rain = 0
KTAT 101750Z 26006KT 05/M01 A3009 RMK A01 T00501009  RH  066%=      5-min Rain = 0
KTAT 101755Z 21006KT 05/M01 A3008 RMK A01 T00521010  RH  065%=      5-min Rain = 0
KTAT 101800Z 21006KT 05/M01 A3008 RMK A01 T00531010  RH  065%=      5-min Rain = 0
KTAT 101805Z 21005G10KT 05/M01 A3008 RMK A01 T00541010  RH  064%=      5-min Rain = 0
KTAT 101810Z 18006KT 06/M01 A3007 RMK A01 T00561009  RH  064%=      5-min Rain = 0
KTAT 101815Z 21006KT 06/M01 A3008 RMK A01 T00581009  RH  063%=      5-min Rain = 0
KTAT 101820Z 20006KT 06/M01 A3007 RMK A01 T00591009  RH  062%=      5-min Rain = 0
KTAT 101825Z 18006G11KT 06/M01 A3006 RMK A01 T00621009  RH  061%=      5-min Rain = 0
KTAT 101830Z 18005KT 07/M01 A3005 RMK A01 T00681006  RH  060%=      5-min Rain = 0
KTAT 101835Z 19006KT 07/M01 A3004 RMK A01 T00731009  RH  057%=      5-min Rain = 0
KTAT 101840Z 23005KT 08/M01 A3004 RMK A01 T00771010  RH  055%=      5-min Rain = 0
KTAT 101845Z 21007KT 08/M01 A3003 RMK A01 T00801009  RH  054%=      5-min Rain = 0
KTAT 101850Z 22008G13KT 09/M01 A3003 RMK A01 T00861010  RH  051%=      5-min Rain = 0
KTAT 101855Z 22007KT 09/M01 A3002 RMK A01 T00891013  RH  049%=      5-min Rain = 0
KTAT 101900Z 22008KT 10/M01 A3002 RMK A01 T00971014  RH  046%=      5-min Rain = 0
KTAT 101905Z 24008KT 10/M01 A3002 RMK A01 T00991014  RH  046%=      5-min Rain = 0
KTAT 101910Z 23010KT 10/M01 A3002 RMK A01 T01021014  RH  045%=      5-min Rain = 0
KTAT 101915Z 22010KT 10/M01 A3001 RMK A01 T01041013  RH  044%=      5-min Rain = 0
KTAT 101920Z 23008KT 11/M01 A30 RMK A01 T01071014  RH  043%=      5-min Rain = 0
KTAT 101925Z 24008KT 11/M02 A30 RMK A01 T01101016  RH  042%=      5-min Rain = 0
KTAT 101930Z 25009KT 11/M02 A30 RMK A01 T01131018  RH  040%=      5-min Rain = 0
KTAT 101935Z 24010KT 12/M02 A30 RMK A01 T01181020  RH  038%=      5-min Rain = 0
KTAT 101940Z 24011G16KT 13/M03 A30 RMK A01 T01251025  RH  035%=      5-min Rain = 0
KTAT 101945Z 24013KT 13/M03 A30 RMK A01 T01311029  RH  033%=      5-min Rain = 0
KTAT 101950Z 24012KT 13/M03 A30 RMK A01 T01301031  RH  033%=      5-min Rain = 0
KTAT 101955Z 23012KT 13/M03 A2999 RMK A01 T01321030  RH  033%=      5-min Rain = 0
KTAT 102000Z 23012G17KT 14/M03 A2999 RMK A01 T01381032  RH  031%=      5-min Rain = 0
KTAT 102005Z 22013G19KT 15/M03 A2999 RMK A01 T01461032  RH  029%=      5-min Rain = 0
KTAT 102010Z 21013KT 15/M03 A2999 RMK A01 T01491032  RH  029%=      5-min Rain = 0
KTAT 102015Z 21012G17KT 15/M03 A2999 RMK A01 T01501032  RH  029%=      5-min Rain = 0
KTAT 102020Z 21015KT 15/M03 A2998 RMK A01 T01501033  RH  028%=      5-min Rain = 0
KTAT 102025Z 21014KT 15/M03 A2998 RMK A01 T01511032  RH  028%=      5-min Rain = 0
KTAT 102030Z 21015KT 15/M03 A2998 RMK A01 T01541030  RH  028%=      5-min Rain = 0
KTAT 102035Z 22017G22KT 16/M03 A2998 RMK A01 T01571029  RH  028%=      5-min Rain = 0
KTAT 102040Z 22017KT 16/M03 A2998 RMK A01 T01601029  RH  027%=      5-min Rain = 0
KTAT 102045Z 22017G23KT 16/M03 A2998 RMK A01 T01571032  RH  027%=      5-min Rain = 0
KTAT 102050Z 23017KT 16/M03 A2998 RMK A01 T01551034  RH  027%=      5-min Rain = 0
KTAT 102055Z 23016G21KT 16/M03 A2998 RMK A01 T01551033  RH  027%=      5-min Rain = 0
KTAT 102100Z 23015KT 16/M03 A2997 RMK A01 T01551033  RH  027%=      5-min Rain = 0
KTAT 102105Z 24015G21KT 16/M03 A2997 RMK A01 T01581034  RH  027%=      5-min Rain = 0
KTAT 102110Z 22015G20KT 16/M03 A2997 RMK A01 T01611031  RH  027%=      5-min Rain = 0
KTAT 102115Z 23017G22KT 16/M03 A2997 RMK A01 T01571031  RH  028%=      5-min Rain = 0
KTAT 102120Z 24016KT 16/M03 A2996 RMK A01 T01581029  RH  028%=      5-min Rain = 0
KTAT 102125Z 24017G22KT 16/M03 A2996 RMK A01 T01571029  RH  028%=      5-min Rain = 0
KTAT 102130Z 24014G19KT 16/M03 A2996 RMK A01 T01591029  RH  028%=      5-min Rain = 0
KTAT 102135Z 23015KT 16/M03 A2996 RMK A01 T01591031  RH  027%=      5-min Rain = 0
KTAT 102140Z 24016G21KT 16/M03 A2996 RMK A01 T01591034  RH  026%=      5-min Rain = 0
KTAT 102145Z 24016G21KT 16/M04 A2996 RMK A01 T01571035  RH  027%=      5-min Rain = 0
KTAT 102150Z 24014G19KT 16/M03 A2996 RMK A01 T01561034  RH  027%=      5-min Rain = 0
KTAT 102155Z 23012KT 16/M04 A2996 RMK A01 T01551036  RH  027%=      5-min Rain = 0
KTAT 102200Z 23012KT 15/M04 A2995 RMK A01 T01521037  RH  027%=      5-min Rain = 0
KTAT 102205Z 25014KT 15/M03 A2996 RMK A01 T01511032  RH  028%=      5-min Rain = 0
KTAT 102210Z 24013KT 15/M03 A2996 RMK A01 T01491027  RH  030%=      5-min Rain = 0
KTAT 102215Z 24014KT 15/M03 A2996 RMK A01 T01491025  RH  030%=      5-min Rain = 0
KTAT 102220Z 24013KT 15/M03 A2996 RMK A01 T01481025  RH  030%=      5-min Rain = 0
KTAT 102225Z 24012KT 15/M02 A2996 RMK A01 T01461024  RH  031%=      5-min Rain = 0
KTAT 102230Z 24013KT 15/M02 A2996 RMK A01 T01451023  RH  032%=      5-min Rain = 0
KTAT 102235Z 24014KT 14/M02 A2996 RMK A01 T01411024  RH  032%=      5-min Rain = 0
KTAT 102240Z 25013KT 14/M02 A2996 RMK A01 T01391021  RH  033%=      5-min Rain = 0
KTAT 102245Z 25013KT 14/M02 A2996 RMK A01 T01381021  RH  033%=      5-min Rain = 0
KTAT 102250Z 25013KT 14/M02 A2996 RMK A01 T01381021  RH  034%=      5-min Rain = 0
KTAT 102255Z 25014KT 14/M02 A2996 RMK A01 T01381019  RH  034%=      5-min Rain = 0
KTAT 102300Z 25014KT 14/M02 A2996 RMK A01 T01361019  RH  034%=      5-min Rain = 0
KTAT 102305Z 25016KT 13/M02 A2996 RMK A01 T01331019  RH  035%=      5-min Rain = 0
KTAT 102310Z 25015KT 13/M02 A2996 RMK A01 T01301018  RH  036%=      5-min Rain = 0
KTAT 102315Z 26015KT 13/M02 A2996 RMK A01 T01291017  RH  037%=      5-min Rain = 0
KTAT 102320Z 25013G19KT 13/M02 A2996 RMK A01 T01271015  RH  038%=      5-min Rain = 0
KTAT 102325Z 25011G16KT 13/M01 A2996 RMK A01 T01261014  RH  038%=      5-min Rain = 0
KTAT 102330Z 26011KT 13/M01 A2996 RMK A01 T01251013  RH  039%=      5-min Rain = 0
KTAT 102335Z 26011KT 12/M01 A2995 RMK A01 T01231011  RH  040%=      5-min Rain = 0
KTAT 102340Z 27010KT 12/M01 A2995 RMK A01 T01221009  RH  041%=      5-min Rain = 0
KTAT 102345Z 27009KT 12/M01 A2995 RMK A01 T01201009  RH  041%=      5-min Rain = 0
KTAT 102350Z 27009KT 12/M01 A2994 RMK A01 T01191008  RH  042%=      5-min Rain = 0
KTAT 102355Z 27010KT 12/M01 A2994 RMK A01 T01181008  RH  042%=      5-min Rain = 0
KTAT 110000Z 26009KT 12/M01 A2994 RMK A01 T01161006  RH  043%=      5-min Rain = 0
KTAT 110005Z 26009KT 12/M01 A2994 RMK A01 T01151006  RH  044%=      5-min Rain = 0
KTAT 110010Z 26009KT 11/M01 A2994 RMK A01 T01141005  RH  044%=      5-min Rain = 0
KTAT 110015Z 26009KT 11/M00 A2994 RMK A01 T01121004  RH  045%=      5-min Rain = 0
KTAT 110020Z 26008KT 11/M00 A2994 RMK A01 T01101002  RH  046%=      5-min Rain = 0
KTAT 110025Z 25009KT 11/00 A2995 RMK A01 T010900-0  RH  047%=      5-min Rain = 0
KTAT 110030Z 25009KT 11/01 A2995 RMK A01 T01060009  RH  052%=      5-min Rain = 0
KTAT 110035Z 25009KT 10/02 A2995 RMK A01 T01000020  RH  059%=      5-min Rain = 0
KTAT 110040Z 26009KT 09/03 A2996 RMK A01 T00940026  RH  064%=      5-min Rain = 0
KTAT 110045Z 26010KT 09/03 A2996 RMK A01 T00880034  RH  070%=      5-min Rain = 0
KTAT 110050Z 27010KT 08/04 A2995 RMK A01 T00840038  RH  075%=      5-min Rain = 0
KTAT 110055Z 27011KT 08/04 A2995 RMK A01 T00800040  RH  077%=      5-min Rain = 0.01
KTAT 110100Z 27010KT 08/04 A2995 RMK A01 T00790042  RH  079%=      5-min Rain = 0
KTAT 110105Z 26008KT 08/04 A2995 RMK A01 T00780042  RH  079%=      5-min Rain = 0
KTAT 110110Z 25007KT 08/04 A2995 RMK A01 T00780042  RH  080%=      5-min Rain = 0
KTAT 110115Z 25007KT 08/04 A2996 RMK A01 T00780043  RH  080%=      5-min Rain = 0
KTAT 110120Z 24006KT 08/04 A2996 RMK A01 T00770044  RH  082%=      5-min Rain = 0
KTAT 110125Z 24005KT 08/05 A2996 RMK A01 T00760045  RH  083%=      5-min Rain = 0
KTAT 110130Z 21006KT 08/05 A2996 RMK A01 T00750047  RH  084%=      5-min Rain = 0
KTAT 110135Z 19007KT 07/05 A2996 RMK A01 T00740048  RH  085%=      5-min Rain = 0
KTAT 110140Z 19007KT 07/05 A2996 RMK A01 T00730049  RH  087%=      5-min Rain = 0
KTAT 110145Z 19007KT 07/05 A2996 RMK A01 T00720049  RH  087%=      5-min Rain = 0
KTAT 110150Z 18008KT 07/05 A2996 RMK A01 T00710049  RH  088%=      5-min Rain = 0
KTAT 110155Z 15008KT 07/05 A2995 RMK A01 T00710049  RH  088%=      5-min Rain = 0
KTAT 110200Z 15008KT 07/05 A2994 RMK A01 T00700049  RH  088%=      5-min Rain = 0
KTAT 110205Z 15009KT 07/05 A2994 RMK A01 T00690048  RH  088%=      5-min Rain = 0
KTAT 110210Z 15009KT 07/05 A2993 RMK A01 T00690046  RH  087%=      5-min Rain = 0
KTAT 110215Z 16009KT 07/05 A2993 RMK A01 T00690045  RH  086%=      5-min Rain = 0
KTAT 110220Z 16008KT 07/04 A2994 RMK A01 T00690044  RH  086%=      5-min Rain = 0
KTAT 110225Z 18007KT 07/04 A2994 RMK A01 T00680044  RH  086%=      5-min Rain = 0
KTAT 110230Z 18007KT 07/04 A2994 RMK A01 T00680044  RH  086%=      5-min Rain = 0.01
KTAT 110235Z 18007KT 07/04 A2995 RMK A01 T00670043  RH  086%=      5-min Rain = 0
KTAT 110240Z 18008KT 07/04 A2995 RMK A01 T00660043  RH  087%=      5-min Rain = 0
KTAT 110245Z 18008KT 07/04 A2996 RMK A01 T00650042  RH  087%=      5-min Rain = 0
KTAT 110250Z 18008KT 07/04 A2995 RMK A01 T00650041  RH  087%=      5-min Rain = 0
KTAT 110255Z 18008KT 07/04 A2995 RMK A01 T00650041  RH  086%=      5-min Rain = 0
KTAT 110300Z 17008KT 06/04 A2995 RMK A01 T00640040  RH  086%=      5-min Rain = 0
KTAT 110305Z 17007KT 06/04 A2995 RMK A01 T00630039  RH  086%=      5-min Rain = 0
KTAT 110310Z 17008KT 06/04 A2995 RMK A01 T00620038  RH  086%=      5-min Rain = 0
KTAT 110315Z 17008KT 06/04 A2995 RMK A01 T00620037  RH  085%=      5-min Rain = 0
KTAT 110320Z 17008KT 06/04 A2994 RMK A01 T00610035  RH  084%=      5-min Rain = 0
KTAT 110325Z 18007KT 06/03 A2994 RMK A01 T00610033  RH  084%=      5-min Rain = 0
KTAT 110330Z 19007KT 06/03 A2994 RMK A01 T00600033  RH  084%=      5-min Rain = 0
KTAT 110335Z 20007KT 06/03 A2994 RMK A01 T00610033  RH  084%=      5-min Rain = 0
KTAT 110340Z 20008KT 06/03 A2994 RMK A01 T00610034  RH  085%=      5-min Rain = 0
KTAT 110345Z 20009KT 06/04 A2994 RMK A01 T00610035  RH  085%=      5-min Rain = 0
KTAT 110350Z 20009KT 06/03 A2994 RMK A01 T00600034  RH  085%=      5-min Rain = 0
KTAT 110355Z 20009KT 06/03 A2994 RMK A01 T00600034  RH  085%=      5-min Rain = 0
KTAT 110400Z 20009KT 06/03 A2994 RMK A01 T00600034  RH  085%=      5-min Rain = 0
KTAT 110405Z 19008KT 06/03 A2994 RMK A01 T00590034  RH  085%=      5-min Rain = 0
KTAT 110410Z 20007KT 06/03 A2994 RMK A01 T00590033  RH  085%=      5-min Rain = 0
KTAT 110415Z 20007KT 06/03 A2993 RMK A01 T00590033  RH  085%=      5-min Rain = 0
KTAT 110420Z 21007KT 06/03 A2993 RMK A01 T00580033  RH  085%=      5-min Rain = 0
KTAT 110425Z 21007KT 06/03 A2993 RMK A01 T00580034  RH  086%=      5-min Rain = 0
KTAT 110430Z 21006KT 06/03 A2993 RMK A01 T00580033  RH  086%=      5-min Rain = 0
KTAT 110435Z 21006KT 06/03 A2993 RMK A01 T00580034  RH  086%=      5-min Rain = 0
KTAT 110440Z 20007KT 06/03 A2993 RMK A01 T00580034  RH  086%=      5-min Rain = 0
KTAT 110445Z 20007KT 06/03 A2993 RMK A01 T00580034  RH  086%=      5-min Rain = 0
KTAT 110450Z 19008KT 06/03 A2992 RMK A01 T00570034  RH  087%=      5-min Rain = 0
KTAT 110455Z 19008KT 06/03 A2992 RMK A01 T00570034  RH  087%=      5-min Rain = 0
KTAT 110500Z 19009KT 06/03 A2992 RMK A01 T00560034  RH  087%=      5-min Rain = 0
KTAT 110505Z 19009KT 06/03 A2992 RMK A01 T00560033  RH  087%=      5-min Rain = 0
KTAT 110510Z 19009KT 06/03 A2991 RMK A01 T00560033  RH  086%=      5-min Rain = 0
KTAT 110515Z 20009KT 06/03 A2991 RMK A01 T00570032  RH  086%=      5-min Rain = 0
KTAT 110520Z 20009KT 06/03 A2991 RMK A01 T00570032  RH  086%=      5-min Rain = 0
KTAT 110525Z 20010KT 06/03 A2991 RMK A01 T00570032  RH  086%=      5-min Rain = 0
KTAT 110530Z 20010KT 06/03 A2991 RMK A01 T00570032  RH  086%=      5-min Rain = 0
KTAT 110535Z 21010KT 06/03 A299 RMK A01 T00560032  RH  086%=      5-min Rain = 0
KTAT 110540Z 21011KT 06/03 A299 RMK A01 T00560031  RH  085%=      5-min Rain = 0
KTAT 110545Z 20010KT 06/03 A299 RMK A01 T00550030  RH  085%=      5-min Rain = 0
KTAT 110550Z 20010KT 06/03 A299 RMK A01 T00550029  RH  085%=      5-min Rain = 0
KTAT 110555Z 20010KT 06/03 A299 RMK A01 T00550029  RH  085%=      5-min Rain = 0

Page generated in 0.009 seconds.